sensor_id;sensor_type;location;lat;lon;timestamp;temperature;humidity
10411;DHT22;5251;52.112;8.606;2023-05-17T00:00:57;11.80;90.00
10411;DHT22;5251;52.112;8.606;2023-05-17T00:03:23;11.80;90.00
10411;DHT22;5251;52.112;8.606;2023-05-17T00:05:48;11.80;90.00
10411;DHT22;5251;52.112;8.606;2023-05-17T00:08:14;11.90;90.00
10411;DHT22;5251;52.112;8.606;2023-05-17T00:10:39;11.90;90.10
10411;DHT22;5251;52.112;8.606;2023-05-17T00:13:05;11.80;90.10
10411;DHT22;5251;52.112;8.606;2023-05-17T00:15:30;11.80;90.20
10411;DHT22;5251;52.112;8.606;2023-05-17T00:17:56;11.70;90.30
10411;DHT22;5251;52.112;8.606;2023-05-17T00:20:22;11.70;90.30
10411;DHT22;5251;52.112;8.606;2023-05-17T00:22:47;11.70;90.50
10411;DHT22;5251;52.112;8.606;2023-05-17T00:25:13;11.60;90.60
10411;DHT22;5251;52.112;8.606;2023-05-17T00:27:38;11.60;90.80
10411;DHT22;5251;52.112;8.606;2023-05-17T00:30:04;11.60;90.80
10411;DHT22;5251;52.112;8.606;2023-05-17T00:32:30;11.50;90.90
10411;DHT22;5251;52.112;8.606;2023-05-17T00:34:56;11.50;91.10
10411;DHT22;5251;52.112;8.606;2023-05-17T00:37:22;11.50;91.20
10411;DHT22;5251;52.112;8.606;2023-05-17T00:39:47;11.40;91.40
10411;DHT22;5251;52.112;8.606;2023-05-17T00:42:13;11.30;91.50
10411;DHT22;5251;52.112;8.606;2023-05-17T00:44:39;11.40;91.70
10411;DHT22;5251;52.112;8.606;2023-05-17T00:47:05;11.30;91.80
10411;DHT22;5251;52.112;8.606;2023-05-17T00:49:31;11.30;91.90
10411;DHT22;5251;52.112;8.606;2023-05-17T00:51:57;11.30;91.90
10411;DHT22;5251;52.112;8.606;2023-05-17T00:54:23;11.30;92.10
10411;DHT22;5251;52.112;8.606;2023-05-17T00:56:51;11.30;92.10
10411;DHT22;5251;52.112;8.606;2023-05-17T00:59:17;11.30;92.30
10411;DHT22;5251;52.112;8.606;2023-05-17T01:01:43;11.20;92.30
10411;DHT22;5251;52.112;8.606;2023-05-17T01:04:09;11.20;92.30
10411;DHT22;5251;52.112;8.606;2023-05-17T01:06:35;11.20;92.50
10411;DHT22;5251;52.112;8.606;2023-05-17T01:09:02;11.20;92.70
10411;DHT22;5251;52.112;8.606;2023-05-17T01:12:00;11.20;92.80
10411;DHT22;5251;52.112;8.606;2023-05-17T01:17:03;11.20;92.90
10411;DHT22;5251;52.112;8.606;2023-05-17T01:27:48;11.10;93.10
10411;DHT22;5251;52.112;8.606;2023-05-17T01:30:15;11.10;93.20
10411;DHT22;5251;52.112;8.606;2023-05-17T01:32:43;11.00;93.30
10411;DHT22;5251;52.112;8.606;2023-05-17T01:35:10;11.00;93.30
10411;DHT22;5251;52.112;8.606;2023-05-17T01:37:39;10.90;93.40
10411;DHT22;5251;52.112;8.606;2023-05-17T01:40:06;10.90;93.40
10411;DHT22;5251;52.112;8.606;2023-05-17T01:42:36;10.90;93.60
10411;DHT22;5251;52.112;8.606;2023-05-17T01:48:24;10.80;94.00
10411;DHT22;5251;52.112;8.606;2023-05-17T01:50:51;10.70;94.00
10411;DHT22;5251;52.112;8.606;2023-05-17T01:53:38;10.70;94.10
10411;DHT22;5251;52.112;8.606;2023-05-17T01:56:09;10.70;94.30
10411;DHT22;5251;52.112;8.606;2023-05-17T01:58:44;10.70;94.40
10411;DHT22;5251;52.112;8.606;2023-05-17T02:01:15;10.70;94.50
10411;DHT22;5251;52.112;8.606;2023-05-17T02:03:41;10.60;94.50
10411;DHT22;5251;52.112;8.606;2023-05-17T02:06:07;10.60;94.70
10411;DHT22;5251;52.112;8.606;2023-05-17T02:08:32;10.60;94.80
10411;DHT22;5251;52.112;8.606;2023-05-17T02:10:58;10.60;94.90
10411;DHT22;5251;52.112;8.606;2023-05-17T02:13:23;10.50;94.90
10411;DHT22;5251;52.112;8.606;2023-05-17T02:15:49;10.50;94.90
10411;DHT22;5251;52.112;8.606;2023-05-17T02:18:15;10.50;95.10
10411;DHT22;5251;52.112;8.606;2023-05-17T02:20:41;10.40;95.10
10411;DHT22;5251;52.112;8.606;2023-05-17T02:23:06;10.50;95.20
10411;DHT22;5251;52.112;8.606;2023-05-17T02:25:32;10.40;95.30
10411;DHT22;5251;52.112;8.606;2023-05-17T02:27:57;10.40;95.40
10411;DHT22;5251;52.112;8.606;2023-05-17T02:30:23;10.40;95.50
10411;DHT22;5251;52.112;8.606;2023-05-17T02:32:50;10.30;95.60
10411;DHT22;5251;52.112;8.606;2023-05-17T02:35:16;10.30;95.80
10411;DHT22;5251;52.112;8.606;2023-05-17T02:37:41;10.30;95.90
10411;DHT22;5251;52.112;8.606;2023-05-17T02:40:07;10.30;96.00
10411;DHT22;5251;52.112;8.606;2023-05-17T02:42:37;10.20;96.20
10411;DHT22;5251;52.112;8.606;2023-05-17T02:45:03;10.20;96.40
10411;DHT22;5251;52.112;8.606;2023-05-17T02:47:28;10.20;96.50
10411;DHT22;5251;52.112;8.606;2023-05-17T02:49:54;10.20;96.60
10411;DHT22;5251;52.112;8.606;2023-05-17T02:52:20;10.20;96.70
10411;DHT22;5251;52.112;8.606;2023-05-17T02:54:45;10.20;96.80
10411;DHT22;5251;52.112;8.606;2023-05-17T02:57:12;10.20;96.80
10411;DHT22;5251;52.112;8.606;2023-05-17T02:59:38;10.20;96.90
10411;DHT22;5251;52.112;8.606;2023-05-17T03:02:03;10.20;96.90
10411;DHT22;5251;52.112;8.606;2023-05-17T03:04:29;10.20;97.00
10411;DHT22;5251;52.112;8.606;2023-05-17T03:06:55;10.10;97.10
10411;DHT22;5251;52.112;8.606;2023-05-17T03:09:20;10.10;97.10
10411;DHT22;5251;52.112;8.606;2023-05-17T03:11:46;10.10;97.20
10411;DHT22;5251;52.112;8.606;2023-05-17T03:14:12;10.10;97.50
10411;DHT22;5251;52.112;8.606;2023-05-17T03:16:38;10.10;97.30
10411;DHT22;5251;52.112;8.606;2023-05-17T03:19:04;10.00;97.20
10411;DHT22;5251;52.112;8.606;2023-05-17T03:21:29;10.00;97.40
10411;DHT22;5251;52.112;8.606;2023-05-17T03:23:56;10.00;97.40
10411;DHT22;5251;52.112;8.606;2023-05-17T03:26:22;10.00;97.60
10411;DHT22;5251;52.112;8.606;2023-05-17T03:28:48;9.90;98.40
10411;DHT22;5251;52.112;8.606;2023-05-17T03:31:14;9.90;98.30
10411;DHT22;5251;52.112;8.606;2023-05-17T03:33:39;9.90;98.20
10411;DHT22;5251;52.112;8.606;2023-05-17T03:36:05;9.90;98.30
10411;DHT22;5251;52.112;8.606;2023-05-17T03:38:31;9.90;98.30
10411;DHT22;5251;52.112;8.606;2023-05-17T03:40:57;9.80;98.30
10411;DHT22;5251;52.112;8.606;2023-05-17T03:43:23;9.90;98.50
10411;DHT22;5251;52.112;8.606;2023-05-17T03:45:48;9.80;98.40
10411;DHT22;5251;52.112;8.606;2023-05-17T03:48:14;9.80;98.40
10411;DHT22;5251;52.112;8.606;2023-05-17T03:50:39;9.70;98.40
10411;DHT22;5251;52.112;8.606;2023-05-17T03:53:05;9.80;98.70
10411;DHT22;5251;52.112;8.606;2023-05-17T03:55:31;9.70;98.80
10411;DHT22;5251;52.112;8.606;2023-05-17T03:57:57;9.70;98.90
10411;DHT22;5251;52.112;8.606;2023-05-17T04:00:22;9.70;99.00
10411;DHT22;5251;52.112;8.606;2023-05-17T04:02:50;9.70;99.20
10411;DHT22;5251;52.112;8.606;2023-05-17T04:05:16;9.70;99.30
10411;DHT22;5251;52.112;8.606;2023-05-17T04:07:42;9.70;99.30
10411;DHT22;5251;52.112;8.606;2023-05-17T04:10:08;9.70;99.40
10411;DHT22;5251;52.112;8.606;2023-05-17T04:12:34;9.80;99.60
10411;DHT22;5251;52.112;8.606;2023-05-17T04:15:00;9.80;99.60
10411;DHT22;5251;52.112;8.606;2023-05-17T04:17:26;9.80;99.60
10411;DHT22;5251;52.112;8.606;2023-05-17T04:19:52;9.80;99.70
10411;DHT22;5251;52.112;8.606;2023-05-17T04:22:18;9.90;99.80
10411;DHT22;5251;52.112;8.606;2023-05-17T04:24:44;9.90;99.90
10411;DHT22;5251;52.112;8.606;2023-05-17T04:27:10;9.90;99.90
10411;DHT22;5251;52.112;8.606;2023-05-17T04:29:36;10.00;99.60
10411;DHT22;5251;52.112;8.606;2023-05-17T04:32:01;10.00;99.70
10411;DHT22;5251;52.112;8.606;2023-05-17T04:34:27;10.00;99.80
10411;DHT22;5251;52.112;8.606;2023-05-17T04:36:52;10.10;99.90
10411;DHT22;5251;52.112;8.606;2023-05-17T04:39:19;10.10;99.90
10411;DHT22;5251;52.112;8.606;2023-05-17T04:41:45;10.20;99.90
10411;DHT22;5251;52.112;8.606;2023-05-17T04:44:11;10.30;99.90
10411;DHT22;5251;52.112;8.606;2023-05-17T04:46:36;10.40;99.90
10411;DHT22;5251;52.112;8.606;2023-05-17T04:49:02;10.50;99.90
10411;DHT22;5251;52.112;8.606;2023-05-17T04:51:28;10.60;99.90
10411;DHT22;5251;52.112;8.606;2023-05-17T04:53:54;10.70;99.90
10411;DHT22;5251;52.112;8.606;2023-05-17T04:56:20;10.90;99.90
10411;DHT22;5251;52.112;8.606;2023-05-17T04:58:46;11.10;99.90
10411;DHT22;5251;52.112;8.606;2023-05-17T05:01:12;11.30;99.90
10411;DHT22;5251;52.112;8.606;2023-05-17T05:03:38;11.30;99.90
10411;DHT22;5251;52.112;8.606;2023-05-17T05:06:03;11.50;99.90
10411;DHT22;5251;52.112;8.606;2023-05-17T05:08:29;11.60;99.90
10411;DHT22;5251;52.112;8.606;2023-05-17T05:10:55;11.70;99.90
10411;DHT22;5251;52.112;8.606;2023-05-17T05:13:21;11.90;99.70
10411;DHT22;5251;52.112;8.606;2023-05-17T05:15:47;12.00;99.20
10411;DHT22;5251;52.112;8.606;2023-05-17T05:18:12;12.10;99.00
10411;DHT22;5251;52.112;8.606;2023-05-17T05:20:38;12.20;98.80
10411;DHT22;5251;52.112;8.606;2023-05-17T05:23:03;12.40;98.60
10411;DHT22;5251;52.112;8.606;2023-05-17T05:25:30;12.50;98.40
10411;DHT22;5251;52.112;8.606;2023-05-17T05:27:56;12.60;98.20
10411;DHT22;5251;52.112;8.606;2023-05-17T05:30:22;12.70;97.60
10411;DHT22;5251;52.112;8.606;2023-05-17T05:32:48;12.70;97.40
10411;DHT22;5251;52.112;8.606;2023-05-17T05:35:14;12.80;96.50
10411;DHT22;5251;52.112;8.606;2023-05-17T05:37:42;12.90;96.40
10411;DHT22;5251;52.112;8.606;2023-05-17T05:40:08;12.90;96.30
10411;DHT22;5251;52.112;8.606;2023-05-17T05:42:34;13.00;96.20
10411;DHT22;5251;52.112;8.606;2023-05-17T05:45:00;13.00;95.70
10411;DHT22;5251;52.112;8.606;2023-05-17T05:47:25;13.10;95.20
10411;DHT22;5251;52.112;8.606;2023-05-17T05:49:51;13.10;94.80
10411;DHT22;5251;52.112;8.606;2023-05-17T05:52:16;13.10;94.20
10411;DHT22;5251;52.112;8.606;2023-05-17T05:54:43;13.20;92.70
10411;DHT22;5251;52.112;8.606;2023-05-17T05:57:09;13.20;91.80
10411;DHT22;5251;52.112;8.606;2023-05-17T05:59:35;13.20;91.30
10411;DHT22;5251;52.112;8.606;2023-05-17T06:02:00;13.40;90.90
10411;DHT22;5251;52.112;8.606;2023-05-17T06:04:26;13.40;89.40
10411;DHT22;5251;52.112;8.606;2023-05-17T06:06:53;13.40;89.50
10411;DHT22;5251;52.112;8.606;2023-05-17T06:09:19;13.50;89.60
10411;DHT22;5251;52.112;8.606;2023-05-17T06:11:44;13.60;89.00
10411;DHT22;5251;52.112;8.606;2023-05-17T06:14:10;13.70;89.10
10411;DHT22;5251;52.112;8.606;2023-05-17T06:16:36;13.70;87.70
10411;DHT22;5251;52.112;8.606;2023-05-17T06:19:02;13.80;85.30
10411;DHT22;5251;52.112;8.606;2023-05-17T06:21:28;13.80;84.00
10411;DHT22;5251;52.112;8.606;2023-05-17T06:23:53;13.80;83.30
10411;DHT22;5251;52.112;8.606;2023-05-17T06:26:19;13.80;82.90
10411;DHT22;5251;52.112;8.606;2023-05-17T06:28:44;13.80;83.30
10411;DHT22;5251;52.112;8.606;2023-05-17T06:31:10;13.90;83.40
10411;DHT22;5251;52.112;8.606;2023-05-17T06:33:35;13.90;82.60
10411;DHT22;5251;52.112;8.606;2023-05-17T06:36:01;13.80;81.70
10411;DHT22;5251;52.112;8.606;2023-05-17T06:38:27;13.80;81.40
10411;DHT22;5251;52.112;8.606;2023-05-17T06:40:53;13.80;78.60
10411;DHT22;5251;52.112;8.606;2023-05-17T06:43:19;13.70;76.70
10411;DHT22;5251;52.112;8.606;2023-05-17T06:45:45;13.70;75.00
10411;DHT22;5251;52.112;8.606;2023-05-17T06:48:11;13.70;75.00
10411;DHT22;5251;52.112;8.606;2023-05-17T06:50:37;13.70;74.20
10411;DHT22;5251;52.112;8.606;2023-05-17T06:53:03;13.60;72.80
10411;DHT22;5251;52.112;8.606;2023-05-17T06:55:29;13.60;71.40
10411;DHT22;5251;52.112;8.606;2023-05-17T06:57:54;13.60;72.40
10411;DHT22;5251;52.112;8.606;2023-05-17T07:00:20;13.50;72.20
10411;DHT22;5251;52.112;8.606;2023-05-17T07:02:46;13.50;71.30
10411;DHT22;5251;52.112;8.606;2023-05-17T07:05:12;13.50;71.00
10411;DHT22;5251;52.112;8.606;2023-05-17T07:07:38;13.50;71.90
10411;DHT22;5251;52.112;8.606;2023-05-17T07:10:04;13.60;70.70
10411;DHT22;5251;52.112;8.606;2023-05-17T07:12:30;13.70;71.50
10411;DHT22;5251;52.112;8.606;2023-05-17T07:14:56;13.80;71.70
10411;DHT22;5251;52.112;8.606;2023-05-17T07:17:22;13.80;70.80
10411;DHT22;5251;52.112;8.606;2023-05-17T07:19:47;14.00;72.60
10411;DHT22;5251;52.112;8.606;2023-05-17T07:22:15;14.10;71.80
10411;DHT22;5251;52.112;8.606;2023-05-17T07:24:42;14.10;72.00
10411;DHT22;5251;52.112;8.606;2023-05-17T07:27:08;14.20;72.50
10411;DHT22;5251;52.112;8.606;2023-05-17T07:29:33;14.20;74.20
10411;DHT22;5251;52.112;8.606;2023-05-17T07:31:59;14.30;74.90
10411;DHT22;5251;52.112;8.606;2023-05-17T07:34:25;14.30;75.60
10411;DHT22;5251;52.112;8.606;2023-05-17T07:36:50;14.40;75.00
10411;DHT22;5251;52.112;8.606;2023-05-17T07:39:16;14.40;74.80
10411;DHT22;5251;52.112;8.606;2023-05-17T07:41:41;14.40;73.80
10411;DHT22;5251;52.112;8.606;2023-05-17T07:44:07;14.40;73.10
10411;DHT22;5251;52.112;8.606;2023-05-17T07:46:32;14.50;71.80
10411;DHT22;5251;52.112;8.606;2023-05-17T07:48:58;14.60;73.60
10411;DHT22;5251;52.112;8.606;2023-05-17T07:51:24;14.70;71.50
10411;DHT22;5251;52.112;8.606;2023-05-17T07:53:49;14.70;70.40
10411;DHT22;5251;52.112;8.606;2023-05-17T07:56:15;14.90;69.40
10411;DHT22;5251;52.112;8.606;2023-05-17T07:58:40;14.90;66.80
10411;DHT22;5251;52.112;8.606;2023-05-17T08:01:06;14.90;65.50
10411;DHT22;5251;52.112;8.606;2023-05-17T08:03:34;14.90;65.10
10411;DHT22;5251;52.112;8.606;2023-05-17T08:05:59;14.90;64.80
10411;DHT22;5251;52.112;8.606;2023-05-17T08:08:25;14.90;66.90
10411;DHT22;5251;52.112;8.606;2023-05-17T08:10:51;14.90;66.00
10411;DHT22;5251;52.112;8.606;2023-05-17T08:13:16;14.90;67.10
10411;DHT22;5251;52.112;8.606;2023-05-17T08:15:42;15.00;69.10
10411;DHT22;5251;52.112;8.606;2023-05-17T08:18:07;15.10;67.50
10411;DHT22;5251;52.112;8.606;2023-05-17T08:20:33;15.20;65.70
10411;DHT22;5251;52.112;8.606;2023-05-17T08:22:58;15.30;65.50
10411;DHT22;5251;52.112;8.606;2023-05-17T08:25:24;15.30;64.80
10411;DHT22;5251;52.112;8.606;2023-05-17T08:27:50;15.40;65.30
10411;DHT22;5251;52.112;8.606;2023-05-17T08:30:16;15.40;64.00
10411;DHT22;5251;52.112;8.606;2023-05-17T08:32:41;15.50;63.10
10411;DHT22;5251;52.112;8.606;2023-05-17T08:35:09;15.40;63.40
10411;DHT22;5251;52.112;8.606;2023-05-17T08:37:35;15.40;64.40
10411;DHT22;5251;52.112;8.606;2023-05-17T08:40:00;15.50;64.00
10411;DHT22;5251;52.112;8.606;2023-05-17T08:42:27;15.50;63.10
10411;DHT22;5251;52.112;8.606;2023-05-17T08:44:54;15.70;62.70
10411;DHT22;5251;52.112;8.606;2023-05-17T08:47:20;15.70;63.30
10411;DHT22;5251;52.112;8.606;2023-05-17T08:49:57;15.80;61.40
10411;DHT22;5251;52.112;8.606;2023-05-17T08:52:29;15.90;62.00
10411;DHT22;5251;52.112;8.606;2023-05-17T08:54:59;16.00;62.00
10411;DHT22;5251;52.112;8.606;2023-05-17T08:57:27;16.00;61.20
10411;DHT22;5251;52.112;8.606;2023-05-17T08:59:54;16.10;61.50
10411;DHT22;5251;52.112;8.606;2023-05-17T09:02:22;16.10;61.60
10411;DHT22;5251;52.112;8.606;2023-05-17T09:04:49;16.10;61.90
10411;DHT22;5251;52.112;8.606;2023-05-17T09:07:22;16.10;62.50
10411;DHT22;5251;52.112;8.606;2023-05-17T09:09:54;16.20;61.10
10411;DHT22;5251;52.112;8.606;2023-05-17T09:12:20;16.30;60.30
10411;DHT22;5251;52.112;8.606;2023-05-17T09:14:46;16.40;60.60
10411;DHT22;5251;52.112;8.606;2023-05-17T09:17:19;16.40;61.00
10411;DHT22;5251;52.112;8.606;2023-05-17T09:19:47;16.40;59.90
10411;DHT22;5251;52.112;8.606;2023-05-17T09:22:17;16.50;59.60
10411;DHT22;5251;52.112;8.606;2023-05-17T09:24:43;16.50;57.10
10411;DHT22;5251;52.112;8.606;2023-05-17T09:27:13;16.60;57.40
10411;DHT22;5251;52.112;8.606;2023-05-17T09:29:39;16.60;58.30
10411;DHT22;5251;52.112;8.606;2023-05-17T09:32:12;16.60;59.20
10411;DHT22;5251;52.112;8.606;2023-05-17T09:34:39;16.70;58.10
10411;DHT22;5251;52.112;8.606;2023-05-17T09:37:11;16.80;58.40
10411;DHT22;5251;52.112;8.606;2023-05-17T09:39:36;16.90;58.00
10411;DHT22;5251;52.112;8.606;2023-05-17T09:42:03;17.00;57.80
10411;DHT22;5251;52.112;8.606;2023-05-17T09:44:29;17.10;58.40
10411;DHT22;5251;52.112;8.606;2023-05-17T09:46:56;17.10;58.00
10411;DHT22;5251;52.112;8.606;2023-05-17T09:49:26;17.20;57.90
10411;DHT22;5251;52.112;8.606;2023-05-17T09:51:51;17.30;58.10
10411;DHT22;5251;52.112;8.606;2023-05-17T09:54:17;17.40;57.60
10411;DHT22;5251;52.112;8.606;2023-05-17T09:56:43;17.30;58.00
10411;DHT22;5251;52.112;8.606;2023-05-17T09:59:13;17.40;57.80
10411;DHT22;5251;52.112;8.606;2023-05-17T10:01:40;17.30;57.40
10411;DHT22;5251;52.112;8.606;2023-05-17T10:04:08;17.30;57.20
10411;DHT22;5251;52.112;8.606;2023-05-17T10:06:38;17.30;57.20
10411;DHT22;5251;52.112;8.606;2023-05-17T10:09:06;17.30;56.90
10411;DHT22;5251;52.112;8.606;2023-05-17T10:11:34;17.30;56.90
10411;DHT22;5251;52.112;8.606;2023-05-17T10:14:21;17.20;55.50
10411;DHT22;5251;52.112;8.606;2023-05-17T10:16:48;17.20;55.40
10411;DHT22;5251;52.112;8.606;2023-05-17T10:19:14;17.20;56.10
10411;DHT22;5251;52.112;8.606;2023-05-17T10:21:40;17.30;56.60
10411;DHT22;5251;52.112;8.606;2023-05-17T10:24:08;17.40;55.30
10411;DHT22;5251;52.112;8.606;2023-05-17T10:26:35;17.50;55.20
10411;DHT22;5251;52.112;8.606;2023-05-17T10:29:02;17.60;54.70
10411;DHT22;5251;52.112;8.606;2023-05-17T10:31:30;17.60;53.30
10411;DHT22;5251;52.112;8.606;2023-05-17T10:34:01;17.60;53.60
10411;DHT22;5251;52.112;8.606;2023-05-17T10:36:27;17.50;54.90
10411;DHT22;5251;52.112;8.606;2023-05-17T10:38:53;17.40;55.70
10411;DHT22;5251;52.112;8.606;2023-05-17T10:41:22;17.40;54.10
10411;DHT22;5251;52.112;8.606;2023-05-17T10:43:49;17.40;53.10
10411;DHT22;5251;52.112;8.606;2023-05-17T10:46:16;17.40;53.40
10411;DHT22;5251;52.112;8.606;2023-05-17T10:48:47;17.30;55.30
10411;DHT22;5251;52.112;8.606;2023-05-17T10:51:13;17.30;55.40
10411;DHT22;5251;52.112;8.606;2023-05-17T10:56:31;17.40;54.30
10411;DHT22;5251;52.112;8.606;2023-05-17T10:59:25;17.40;53.60
10411;DHT22;5251;52.112;8.606;2023-05-17T11:02:05;17.30;54.80
10411;DHT22;5251;52.112;8.606;2023-05-17T11:09:50;17.40;53.60
10411;DHT22;5251;52.112;8.606;2023-05-17T11:12:29;17.40;55.80
10411;DHT22;5251;52.112;8.606;2023-05-17T11:14:57;17.50;55.40
10411;DHT22;5251;52.112;8.606;2023-05-17T11:17:32;17.60;54.80
10411;DHT22;5251;52.112;8.606;2023-05-17T11:20:30;17.80;54.00
10411;DHT22;5251;52.112;8.606;2023-05-17T11:23:15;17.80;53.30
10411;DHT22;5251;52.112;8.606;2023-05-17T11:25:41;17.80;53.20
10411;DHT22;5251;52.112;8.606;2023-05-17T11:28:08;17.80;53.70
10411;DHT22;5251;52.112;8.606;2023-05-17T11:30:39;17.70;52.40
10411;DHT22;5251;52.112;8.606;2023-05-17T11:33:05;17.70;52.60
10411;DHT22;5251;52.112;8.606;2023-05-17T11:35:32;17.60;52.50
10411;DHT22;5251;52.112;8.606;2023-05-17T11:40:39;17.50;52.10
10411;DHT22;5251;52.112;8.606;2023-05-17T11:45:41;17.50;53.50
10411;DHT22;5251;52.112;8.606;2023-05-17T11:48:07;17.60;53.70
10411;DHT22;5251;52.112;8.606;2023-05-17T11:50:35;17.60;54.20
10411;DHT22;5251;52.112;8.606;2023-05-17T11:53:06;17.70;55.10
10411;DHT22;5251;52.112;8.606;2023-05-17T11:55:53;17.70;53.80
10411;DHT22;5251;52.112;8.606;2023-05-17T11:58:23;17.70;53.90
10411;DHT22;5251;52.112;8.606;2023-05-17T12:00:53;17.80;53.70
10411;DHT22;5251;52.112;8.606;2023-05-17T12:03:27;17.80;52.70
10411;DHT22;5251;52.112;8.606;2023-05-17T12:06:09;17.80;53.00
10411;DHT22;5251;52.112;8.606;2023-05-17T12:08:38;17.90;53.20
10411;DHT22;5251;52.112;8.606;2023-05-17T12:11:06;17.80;52.70
10411;DHT22;5251;52.112;8.606;2023-05-17T12:13:33;17.80;53.30
10411;DHT22;5251;52.112;8.606;2023-05-17T12:16:02;17.80;55.00
10411;DHT22;5251;52.112;8.606;2023-05-17T12:21:03;17.80;55.20
10411;DHT22;5251;52.112;8.606;2023-05-17T12:23:31;17.90;55.00
10411;DHT22;5251;52.112;8.606;2023-05-17T12:26:07;17.90;54.00
10411;DHT22;5251;52.112;8.606;2023-05-17T12:28:35;17.90;53.50
10411;DHT22;5251;52.112;8.606;2023-05-17T12:31:02;17.90;53.50
10411;DHT22;5251;52.112;8.606;2023-05-17T12:33:34;17.90;53.80
10411;DHT22;5251;52.112;8.606;2023-05-17T12:36:01;17.90;52.10
10411;DHT22;5251;52.112;8.606;2023-05-17T12:38:29;17.80;52.70
10411;DHT22;5251;52.112;8.606;2023-05-17T12:40:59;17.80;54.10
10411;DHT22;5251;52.112;8.606;2023-05-17T12:43:25;17.80;54.00
10411;DHT22;5251;52.112;8.606;2023-05-17T12:45:52;17.70;53.50
10411;DHT22;5251;52.112;8.606;2023-05-17T12:48:18;17.60;53.90
10411;DHT22;5251;52.112;8.606;2023-05-17T12:50:43;17.50;53.40
10411;DHT22;5251;52.112;8.606;2023-05-17T12:53:10;17.50;53.30
10411;DHT22;5251;52.112;8.606;2023-05-17T12:55:36;17.40;53.40
10411;DHT22;5251;52.112;8.606;2023-05-17T12:58:02;17.30;53.70
10411;DHT22;5251;52.112;8.606;2023-05-17T13:00:29;17.20;53.80
10411;DHT22;5251;52.112;8.606;2023-05-17T13:02:55;17.20;53.50
10411;DHT22;5251;52.112;8.606;2023-05-17T13:05:21;17.10;53.30
10411;DHT22;5251;52.112;8.606;2023-05-17T13:07:46;17.10;54.60
10411;DHT22;5251;52.112;8.606;2023-05-17T13:10:26;17.10;52.90
10411;DHT22;5251;52.112;8.606;2023-05-17T13:12:56;17.00;53.40
10411;DHT22;5251;52.112;8.606;2023-05-17T13:15:32;17.00;53.20
10411;DHT22;5251;52.112;8.606;2023-05-17T13:17:59;17.00;54.40
10411;DHT22;5251;52.112;8.606;2023-05-17T13:20:27;17.00;55.30
10411;DHT22;5251;52.112;8.606;2023-05-17T13:22:53;17.10;55.90
10411;DHT22;5251;52.112;8.606;2023-05-17T13:25:19;17.20;54.10
10411;DHT22;5251;52.112;8.606;2023-05-17T13:27:45;17.30;54.00
10411;DHT22;5251;52.112;8.606;2023-05-17T13:30:14;17.20;54.00
10411;DHT22;5251;52.112;8.606;2023-05-17T13:32:40;17.20;53.20
10411;DHT22;5251;52.112;8.606;2023-05-17T13:35:06;17.20;53.20
10411;DHT22;5251;52.112;8.606;2023-05-17T13:37:32;17.20;53.70
10411;DHT22;5251;52.112;8.606;2023-05-17T13:39:57;17.20;53.00
10411;DHT22;5251;52.112;8.606;2023-05-17T13:42:23;17.30;54.80
10411;DHT22;5251;52.112;8.606;2023-05-17T13:44:48;17.30;54.20
10411;DHT22;5251;52.112;8.606;2023-05-17T13:47:14;17.50;54.50
10411;DHT22;5251;52.112;8.606;2023-05-17T13:49:40;17.60;53.90
10411;DHT22;5251;52.112;8.606;2023-05-17T13:52:06;17.70;53.80
10411;DHT22;5251;52.112;8.606;2023-05-17T13:54:37;17.90;53.70
10411;DHT22;5251;52.112;8.606;2023-05-17T13:57:04;18.00;53.70
10411;DHT22;5251;52.112;8.606;2023-05-17T13:59:30;18.10;52.40
10411;DHT22;5251;52.112;8.606;2023-05-17T14:01:55;18.10;52.70
10411;DHT22;5251;52.112;8.606;2023-05-17T14:04:22;18.20;51.60
10411;DHT22;5251;52.112;8.606;2023-05-17T14:06:48;18.20;52.60
10411;DHT22;5251;52.112;8.606;2023-05-17T14:09:13;18.30;52.10
10411;DHT22;5251;52.112;8.606;2023-05-17T14:11:39;18.30;53.10
10411;DHT22;5251;52.112;8.606;2023-05-17T14:14:05;18.40;53.40
10411;DHT22;5251;52.112;8.606;2023-05-17T14:16:31;18.50;53.70
10411;DHT22;5251;52.112;8.606;2023-05-17T14:18:56;18.50;52.80
10411;DHT22;5251;52.112;8.606;2023-05-17T14:21:22;18.50;52.50
10411;DHT22;5251;52.112;8.606;2023-05-17T14:23:48;18.40;52.00
10411;DHT22;5251;52.112;8.606;2023-05-17T14:26:13;18.40;52.00
10411;DHT22;5251;52.112;8.606;2023-05-17T14:28:39;18.30;53.10
10411;DHT22;5251;52.112;8.606;2023-05-17T14:31:05;18.20;53.00
10411;DHT22;5251;52.112;8.606;2023-05-17T14:33:31;18.20;52.20
10411;DHT22;5251;52.112;8.606;2023-05-17T14:35:57;18.20;51.60
10411;DHT22;5251;52.112;8.606;2023-05-17T14:38:23;18.20;51.40
10411;DHT22;5251;52.112;8.606;2023-05-17T14:40:48;18.10;51.80
10411;DHT22;5251;52.112;8.606;2023-05-17T14:43:14;18.00;51.30
10411;DHT22;5251;52.112;8.606;2023-05-17T14:45:40;17.90;52.60
10411;DHT22;5251;52.112;8.606;2023-05-17T14:48:06;17.90;52.10
10411;DHT22;5251;52.112;8.606;2023-05-17T14:50:35;17.90;52.40
10411;DHT22;5251;52.112;8.606;2023-05-17T14:53:01;18.00;51.60
10411;DHT22;5251;52.112;8.606;2023-05-17T14:55:26;18.00;51.70
10411;DHT22;5251;52.112;8.606;2023-05-17T14:57:52;18.00;52.90
10411;DHT22;5251;52.112;8.606;2023-05-17T15:00:20;17.90;53.10
10411;DHT22;5251;52.112;8.606;2023-05-17T15:02:46;17.90;53.80
10411;DHT22;5251;52.112;8.606;2023-05-17T15:05:12;18.00;52.90
10411;DHT22;5251;52.112;8.606;2023-05-17T15:07:37;17.90;51.70
10411;DHT22;5251;52.112;8.606;2023-05-17T15:10:03;17.90;52.50
10411;DHT22;5251;52.112;8.606;2023-05-17T15:12:29;17.90;52.10
10411;DHT22;5251;52.112;8.606;2023-05-17T15:14:56;17.90;52.10
10411;DHT22;5251;52.112;8.606;2023-05-17T15:17:22;17.90;52.30
10411;DHT22;5251;52.112;8.606;2023-05-17T15:19:48;17.90;53.60
10411;DHT22;5251;52.112;8.606;2023-05-17T15:22:14;17.90;54.00
10411;DHT22;5251;52.112;8.606;2023-05-17T15:24:40;18.00;53.20
10411;DHT22;5251;52.112;8.606;2023-05-17T15:27:05;18.00;53.70
10411;DHT22;5251;52.112;8.606;2023-05-17T15:29:32;18.00;53.00
10411;DHT22;5251;52.112;8.606;2023-05-17T15:31:58;18.10;52.90
10411;DHT22;5251;52.112;8.606;2023-05-17T15:34:24;18.10;52.50
10411;DHT22;5251;52.112;8.606;2023-05-17T15:36:53;18.10;52.20
10411;DHT22;5251;52.112;8.606;2023-05-17T15:39:19;18.10;51.00
10411;DHT22;5251;52.112;8.606;2023-05-17T15:41:44;18.10;51.30
10411;DHT22;5251;52.112;8.606;2023-05-17T15:44:10;18.00;50.80
10411;DHT22;5251;52.112;8.606;2023-05-17T15:46:36;18.00;51.30
10411;DHT22;5251;52.112;8.606;2023-05-17T15:49:01;18.00;51.80
10411;DHT22;5251;52.112;8.606;2023-05-17T15:51:27;18.00;52.20
10411;DHT22;5251;52.112;8.606;2023-05-17T15:53:52;18.00;52.70
10411;DHT22;5251;52.112;8.606;2023-05-17T15:56:18;18.00;52.20
10411;DHT22;5251;52.112;8.606;2023-05-17T15:58:45;18.00;51.80
10411;DHT22;5251;52.112;8.606;2023-05-17T16:01:11;17.90;52.00
10411;DHT22;5251;52.112;8.606;2023-05-17T16:03:37;17.80;52.00
10411;DHT22;5251;52.112;8.606;2023-05-17T16:06:03;17.80;52.70
10411;DHT22;5251;52.112;8.606;2023-05-17T16:08:29;17.70;53.10
10411;DHT22;5251;52.112;8.606;2023-05-17T16:10:55;17.60;52.80
10411;DHT22;5251;52.112;8.606;2023-05-17T16:13:20;17.50;53.10
10411;DHT22;5251;52.112;8.606;2023-05-17T16:15:46;17.40;53.40